Time;durP1;ratioP1;P1;durP2;ratioP2;P2;SDS_P1;SDS_P2;PMS_P1;PMS_P2;Temp;Humidity;BMP_temperature;BMP_pressure;BME280_temperature;BME280_humidity;BME280_pressure;Samples;Min_cycle;Max_cycle;Signal;HPM_P1;HPM_P2
2022/12/14 00:01:37;;;;;;;23.95;10.93;;;;;;;;;;5064840;28;20478;-79
2022/12/14 00:04:03;;;;;;;14.32;7.43;;;;;;;;;;5073568;28;20029;-78
2022/12/14 00:06:30;;;;;;;11.23;6.28;;;;;;;;;;5064612;28;20029;-78
2022/12/14 00:08:58;;;;;;;13.93;6.88;;;;;;;;;;5066507;28;20029;-78
2022/12/14 00:11:24;;;;;;;11.43;6.55;;;;;;;;;;5059517;28;20044;-80
2022/12/14 00:13:52;;;;;;;13.13;7.53;;;;;;;;;;5061646;28;20036;-80
2022/12/14 00:16:18;;;;;;;11.13;6.28;;;;;;;;;;5058445;28;20017;-79
2022/12/14 00:18:48;;;;;;;11.38;5.63;;;;;;;;;;5063483;28;20029;-79
2022/12/14 00:21:14;;;;;;;11.32;6.15;;;;;;;;;;5065971;28;20054;-77
2022/12/14 00:23:41;;;;;;;9.60;6.70;;;;;;;;;;5056937;28;20028;-77
2022/12/14 00:26:12;;;;;;;10.73;6.63;;;;;;;;;;5060306;28;20064;-77
2022/12/14 00:28:38;;;;;;;10.35;5.35;;;;;;;;;;5061803;28;20120;-78
2022/12/14 00:31:04;;;;;;;10.55;5.30;;;;;;;;;;5057828;28;20043;-79
2022/12/14 00:33:30;;;;;;;11.32;6.18;;;;;;;;;;5050861;28;20026;-78
2022/12/14 00:35:56;;;;;;;10.07;5.82;;;;;;;;;;5060498;28;20047;-78
2022/12/14 00:38:23;;;;;;;10.23;5.68;;;;;;;;;;5052067;28;20022;-78
2022/12/14 00:40:49;;;;;;;11.35;7.90;;;;;;;;;;5059119;28;20489;-79
2022/12/14 00:43:15;;;;;;;9.88;5.93;;;;;;;;;;5068485;28;20102;-79
2022/12/14 00:45:43;;;;;;;10.48;5.85;;;;;;;;;;5067883;28;20132;-79
2022/12/14 00:48:09;;;;;;;12.10;6.22;;;;;;;;;;5056450;28;20021;-78
2022/12/14 00:50:36;;;;;;;11.35;5.43;;;;;;;;;;5055184;28;20029;-76
2022/12/14 00:53:02;;;;;;;9.65;5.43;;;;;;;;;;5057755;28;20092;-77
2022/12/14 00:55:28;;;;;;;11.45;6.32;;;;;;;;;;5062563;28;20032;-77
2022/12/14 00:57:54;;;;;;;11.07;5.63;;;;;;;;;;5054193;28;20045;-79
2022/12/14 01:00:20;;;;;;;14.43;5.90;;;;;;;;;;5063817;28;20025;-79
2022/12/14 01:02:46;;;;;;;9.40;5.63;;;;;;;;;;5063313;28;20079;-77
2022/12/14 01:05:12;;;;;;;12.07;7.22;;;;;;;;;;5061550;28;20032;-77
2022/12/14 01:07:41;;;;;;;10.82;5.60;;;;;;;;;;5064005;28;20037;-77
2022/12/14 01:10:07;;;;;;;9.00;6.13;;;;;;;;;;5051105;28;20044;-77
2022/12/14 01:12:36;;;;;;;12.77;6.28;;;;;;;;;;5061584;28;20037;-77
2022/12/14 01:15:03;;;;;;;16.35;6.90;;;;;;;;;;5054804;28;20434;-78
2022/12/14 01:17:29;;;;;;;17.63;9.73;;;;;;;;;;5050181;28;20105;-78
2022/12/14 01:19:55;;;;;;;14.82;7.90;;;;;;;;;;5059207;28;20025;-77
2022/12/14 01:22:21;;;;;;;12.63;6.53;;;;;;;;;;5057899;28;20025;-78
2022/12/14 01:24:47;;;;;;;10.23;5.85;;;;;;;;;;5061672;28;20054;-78
2022/12/14 01:27:13;;;;;;;11.43;5.55;;;;;;;;;;5061306;28;20098;-78
2022/12/14 01:29:40;;;;;;;9.27;6.20;;;;;;;;;;5060715;28;20065;-78
2022/12/14 01:32:06;;;;;;;11.25;6.68;;;;;;;;;;5073804;28;20017;-80
2022/12/14 01:34:32;;;;;;;11.57;6.68;;;;;;;;;;5086827;28;20029;-78
2022/12/14 01:36:58;;;;;;;11.05;5.97;;;;;;;;;;5067436;28;20056;-77
2022/12/14 01:39:24;;;;;;;10.10;5.97;;;;;;;;;;5056432;28;20017;-79
2022/12/14 01:41:51;;;;;;;10.77;6.35;;;;;;;;;;5056604;28;20029;-78
2022/12/14 01:44:17;;;;;;;8.43;5.13;;;;;;;;;;5057476;28;20025;-78
2022/12/14 01:46:53;;;;;;;12.40;5.50;;;;;;;;;;5061231;28;20013;-77
2022/12/14 01:49:19;;;;;;;;;;;;;;;;;;5056489;28;20378;-78
2022/12/14 01:51:47;;;;;;;9.35;4.97;;;;;;;;;;5057868;28;19912;-78
2022/12/14 01:54:15;;;;;;;9.38;5.75;;;;;;;;;;5054174;28;20060;-79
2022/12/14 01:56:42;;;;;;;10.15;6.70;;;;;;;;;;5056025;28;20032;-79
2022/12/14 01:59:11;;;;;;;8.40;4.63;;;;;;;;;;5059949;28;20083;-79
2022/12/14 02:01:37;;;;;;;8.95;5.53;;;;;;;;;;5059832;28;20025;-78
2022/12/14 02:04:04;;;;;;;7.30;4.63;;;;;;;;;;5054833;28;20040;-78
2022/12/14 02:06:34;;;;;;;6.05;4.47;;;;;;;;;;5052129;28;20040;-77
2022/12/14 02:09:01;;;;;;;6.63;4.97;;;;;;;;;;5056775;28;20025;-80
2022/12/14 02:11:50;;;;;;;5.25;4.00;;;;;;;;;;5058430;28;20037;-78
2022/12/14 02:14:16;;;;;;;8.43;4.88;;;;;;;;;;5039308;28;20124;-78
2022/12/14 02:16:43;;;;;;;8.75;4.63;;;;;;;;;;5058887;28;20324;-77
2022/12/14 02:19:09;;;;;;;8.43;5.22;;;;;;;;;;5058628;28;20033;-79
2022/12/14 02:21:40;;;;;;;7.63;5.30;;;;;;;;;;5052156;28;20383;-78
2022/12/14 02:24:25;;;;;;;11.75;4.82;;;;;;;;;;5049362;28;20073;-79
2022/12/14 02:26:54;;;;;;;9.48;5.28;;;;;;;;;;5044447;28;20374;-79
2022/12/14 02:29:36;;;;;;;8.77;5.03;;;;;;;;;;5043250;28;20025;-79
2022/12/14 02:32:03;;;;;;;7.22;4.80;;;;;;;;;;5052112;28;20021;-78
2022/12/14 02:34:35;;;;;;;7.72;4.80;;;;;;;;;;5060278;28;20032;-79
2022/12/14 02:37:27;;;;;;;6.43;5.00;;;;;;;;;;5054884;28;20021;-79
2022/12/14 02:40:03;;;;;;;8.85;5.60;;;;;;;;;;5054659;28;20044;-78
2022/12/14 02:42:52;;;;;;;7.07;4.80;;;;;;;;;;5053208;28;20032;-78
2022/12/14 02:45:25;;;;;;;6.35;4.70;;;;;;;;;;5047313;28;20044;-78
2022/12/14 02:48:30;;;;;;;5.72;4.43;;;;;;;;;;5042892;28;20025;-79
2022/12/14 02:51:02;;;;;;;8.50;4.45;;;;;;;;;;5010958;28;20247;-78
2022/12/14 02:53:40;;;;;;;6.65;3.85;;;;;;;;;;5024514;28;20052;-78
2022/12/14 02:56:08;;;;;;;7.38;4.15;;;;;;;;;;5032973;28;20033;-77
2022/12/14 02:58:49;;;;;;;11.43;4.20;;;;;;;;;;5050647;28;20033;-78
2022/12/14 03:01:18;;;;;;;9.75;4.35;;;;;;;;;;5061575;28;20009;-77
2022/12/14 03:03:44;;;;;;;9.52;4.22;;;;;;;;;;5070682;28;20013;-80
2022/12/14 03:06:26;;;;;;;11.18;4.45;;;;;;;;;;5065555;28;20028;-80
2022/12/14 03:09:12;;;;;;;6.82;4.10;;;;;;;;;;5070293;28;20354;-78
2022/12/14 03:11:45;;;;;;;6.97;4.13;;;;;;;;;;5065023;28;20025;-78
2022/12/14 03:14:16;;;;;;;9.30;4.10;;;;;;;;;;5058674;28;20184;-78
2022/12/14 03:16:45;;;;;;;7.55;3.65;;;;;;;;;;5058911;28;20096;-79
2022/12/14 03:19:15;;;;;;;5.70;3.47;;;;;;;;;;5052042;28;20025;-78
2022/12/14 03:21:44;;;;;;;4.80;3.38;;;;;;;;;;5053043;28;20052;-79
2022/12/14 03:24:12;;;;;;;6.28;3.75;;;;;;;;;;5051472;28;20063;-79
2022/12/14 03:26:52;;;;;;;6.90;3.75;;;;;;;;;;5053735;28;20072;-79
2022/12/14 03:29:21;;;;;;;4.28;3.30;;;;;;;;;;5056233;28;20044;-79
2022/12/14 03:31:58;;;;;;;5.70;3.45;;;;;;;;;;5050733;28;20025;-79
2022/12/14 03:34:28;;;;;;;4.35;3.20;;;;;;;;;;5056574;28;20040;-79
2022/12/14 03:37:11;;;;;;;7.50;3.42;;;;;;;;;;5053993;28;20052;-78
2022/12/14 03:39:38;;;;;;;5.30;3.65;;;;;;;;;;5048858;28;20029;-79
2022/12/14 03:42:11;;;;;;;8.43;3.95;;;;;;;;;;5049776;28;20021;-80
2022/12/14 03:44:53;;;;;;;5.70;3.67;;;;;;;;;;5050840;28;20043;-79
2022/12/14 03:47:46;;;;;;;5.13;3.53;;;;;;;;;;5052508;28;20021;-78
2022/12/14 03:50:35;;;;;;;7.65;3.60;;;;;;;;;;5044146;28;20079;-78
2022/12/14 03:53:01;;;;;;;5.13;3.70;;;;;;;;;;5057615;28;20045;-78
2022/12/14 03:55:40;;;;;;;5.72;3.90;;;;;;;;;;5060222;28;20041;-78
2022/12/14 03:58:12;;;;;;;7.22;3.60;;;;;;;;;;5051665;28;20028;-77
2022/12/14 04:00:51;;;;;;;6.93;3.90;;;;;;;;;;5054855;28;20086;-79
2022/12/14 04:03:26;;;;;;;8.10;3.63;;;;;;;;;;5054481;28;20382;-78
2022/12/14 04:05:59;;;;;;;9.98;3.75;;;;;;;;;;5055575;28;20180;-77
2022/12/14 04:08:25;;;;;;;8.15;3.20;;;;;;;;;;5059457;28;20045;-80
2022/12/14 04:19:39;;;;;;;5.38;3.58;;;;;;;;;;5051037;28;20064;-79
2022/12/14 04:22:08;;;;;;;8.43;3.75;;;;;;;;;;5054101;28;20051;-80
2022/12/14 04:27:30;;;;;;;5.53;3.20;;;;;;;;;;5052259;28;20044;-79
2022/12/14 04:29:59;;;;;;;6.32;3.15;;;;;;;;;;5063143;28;20040;-79
2022/12/14 04:32:51;;;;;;;5.45;4.68;;;;;;;;;;5054670;28;20082;-80
2022/12/14 04:35:27;;;;;;;7.82;3.78;;;;;;;;;;5050351;28;20079;-78
2022/12/14 04:37:58;;;;;;;6.25;3.13;;;;;;;;;;5057850;28;20035;-77
2022/12/14 04:40:27;;;;;;;5.30;2.85;;;;;;;;;;5052557;28;20061;-78
2022/12/14 04:42:57;;;;;;;3.67;2.78;;;;;;;;;;5050385;28;20033;-78
2022/12/14 04:45:43;;;;;;;3.33;3.03;;;;;;;;;;5052083;28;20025;-79
2022/12/14 04:48:08;;;;;;;;;;;;;;;;;;5052448;28;20509;-79
2022/12/14 04:50:37;;;;;;;4.43;2.50;;;;;;;;;;5052805;28;19909;-79
2022/12/14 04:53:08;;;;;;;3.97;2.78;;;;;;;;;;5048853;28;20041;-78
2022/12/14 04:55:36;;;;;;;5.20;2.55;;;;;;;;;;5050636;28;20025;-78
2022/12/14 04:58:09;;;;;;;4.30;2.60;;;;;;;;;;5050825;28;20021;-79
2022/12/14 05:00:37;;;;;;;6.95;2.85;;;;;;;;;;5050602;28;20047;-77
2022/12/14 05:03:03;;;;;;;5.57;2.65;;;;;;;;;;5048566;28;20020;-79
2022/12/14 05:05:42;;;;;;;8.75;2.92;;;;;;;;;;5043158;28;20028;-78
2022/12/14 05:08:08;;;;;;;3.25;2.30;;;;;;;;;;5044956;28;20053;-78
2022/12/14 05:10:42;;;;;;;4.50;2.75;;;;;;;;;;5056498;28;20109;-79
2022/12/14 05:13:14;;;;;;;4.38;2.42;;;;;;;;;;5050503;28;20152;-78
2022/12/14 05:15:43;;;;;;;3.13;2.28;;;;;;;;;;5048113;28;20082;-78
2022/12/14 05:18:10;;;;;;;8.38;2.58;;;;;;;;;;5054844;28;20025;-79
2022/12/14 05:20:36;;;;;;;5.47;2.40;;;;;;;;;;5074117;28;20025;-77
2022/12/14 05:23:02;;;;;;;4.05;2.35;;;;;;;;;;5055156;28;20108;-78
2022/12/14 05:25:28;;;;;;;4.70;2.30;;;;;;;;;;5058661;28;20440;-80
2022/12/14 05:27:54;;;;;;;3.13;2.42;;;;;;;;;;5054807;28;20021;-77
2022/12/14 05:30:20;;;;;;;3.60;2.60;;;;;;;;;;5056991;28;20104;-79
2022/12/14 05:32:46;;;;;;;2.95;2.33;;;;;;;;;;5055575;28;20025;-79
2022/12/14 05:35:13;;;;;;;5.18;2.45;;;;;;;;;;5068642;28;20044;-78
2022/12/14 05:37:39;;;;;;;4.57;2.97;;;;;;;;;;5062587;28;20040;-78
2022/12/14 05:40:06;;;;;;;5.43;2.50;;;;;;;;;;5063387;28;20079;-77
2022/12/14 05:42:32;;;;;;;6.20;2.60;;;;;;;;;;5063667;28;20025;-77
2022/12/14 05:44:58;;;;;;;6.80;2.67;;;;;;;;;;5064468;28;20029;-79
2022/12/14 05:47:24;;;;;;;4.63;2.42;;;;;;;;;;5059417;28;20029;-78
2022/12/14 05:49:50;;;;;;;3.90;2.05;;;;;;;;;;5054798;28;20029;-79
2022/12/14 05:52:17;;;;;;;3.22;2.28;;;;;;;;;;5056739;28;20029;-80
2022/12/14 05:54:43;;;;;;;4.68;2.67;;;;;;;;;;5056237;28;20035;-79
2022/12/14 05:57:09;;;;;;;2.72;2.10;;;;;;;;;;5057624;28;20041;-81
2022/12/14 05:59:35;;;;;;;4.03;2.40;;;;;;;;;;5057129;28;20429;-78
2022/12/14 06:02:01;;;;;;;3.53;2.50;;;;;;;;;;5060410;28;20021;-78
2022/12/14 06:04:27;;;;;;;4.45;2.55;;;;;;;;;;5059000;28;20025;-77
2022/12/14 06:06:53;;;;;;;6.28;2.78;;;;;;;;;;5054710;28;20089;-78
2022/12/14 06:09:19;;;;;;;3.90;2.40;;;;;;;;;;5061954;28;20017;-78
2022/12/14 06:11:46;;;;;;;3.60;2.28;;;;;;;;;;5053576;28;20031;-80
2022/12/14 06:14:12;;;;;;;5.45;2.40;;;;;;;;;;5048788;28;20025;-78
2022/12/14 06:16:42;;;;;;;2.55;2.15;;;;;;;;;;5054313;28;20025;-80
2022/12/14 06:19:09;;;;;;;5.28;2.58;;;;;;;;;;5057499;28;20343;-79
2022/12/14 06:21:36;;;;;;;3.88;2.30;;;;;;;;;;5053531;28;20040;-78
2022/12/14 06:24:03;;;;;;;6.22;3.08;;;;;;;;;;5052690;28;20459;-78
2022/12/14 06:26:30;;;;;;;7.07;2.47;;;;;;;;;;5058255;28;20033;-78
2022/12/14 06:28:56;;;;;;;6.40;3.50;;;;;;;;;;5058123;28;20021;-78
2022/12/14 06:31:24;;;;;;;3.65;2.45;;;;;;;;;;5052259;28;20025;-79
2022/12/14 06:33:52;;;;;;;6.60;3.17;;;;;;;;;;5059991;28;20025;-78
2022/12/14 06:36:20;;;;;;;6.15;4.63;;;;;;;;;;5066315;28;20021;-79
2022/12/14 06:38:46;;;;;;;5.93;3.25;;;;;;;;;;5062140;28;20027;-77
2022/12/14 06:41:12;;;;;;;5.35;2.35;;;;;;;;;;5056508;28;20018;-76
2022/12/14 06:43:38;;;;;;;9.68;2.92;;;;;;;;;;5051489;28;20021;-81
2022/12/14 06:46:08;;;;;;;2.20;1.98;;;;;;;;;;5077620;22;20049;-77
2022/12/14 06:48:35;;;;;;;3.03;2.20;;;;;;;;;;5044355;28;20053;-78
2022/12/14 06:51:05;;;;;;;3.70;2.20;;;;;;;;;;5042658;28;20035;-77
2022/12/14 06:53:31;;;;;;;2.83;2.20;;;;;;;;;;5053758;28;20036;-79
2022/12/14 06:56:08;;;;;;;5.28;2.38;;;;;;;;;;5053927;28;20025;-79
2022/12/14 06:58:34;;;;;;;5.18;2.15;;;;;;;;;;5073493;28;20416;-76
2022/12/14 07:01:07;;;;;;;2.75;1.90;;;;;;;;;;5057182;28;20025;-79
2022/12/14 07:03:33;;;;;;;2.88;1.83;;;;;;;;;;5064262;28;20074;-76
2022/12/14 07:06:00;;;;;;;4.50;2.15;;;;;;;;;;5059067;28;20492;-79
2022/12/14 07:08:27;;;;;;;2.28;1.77;;;;;;;;;;5058382;28;20032;-78
2022/12/14 07:10:54;;;;;;;5.38;2.50;;;;;;;;;;5060046;28;20028;-78
2022/12/14 07:13:20;;;;;;;5.22;2.55;;;;;;;;;;5066063;28;20021;-79
2022/12/14 07:15:56;;;;;;;2.97;1.98;;;;;;;;;;5058743;28;20057;-79
2022/12/14 07:18:22;;;;;;;5.07;2.00;;;;;;;;;;5064034;28;20021;-79
2022/12/14 07:20:59;;;;;;;4.80;2.40;;;;;;;;;;5077455;28;20550;-80
2022/12/14 07:23:27;;;;;;;4.93;2.17;;;;;;;;;;5067368;28;20480;-81
2022/12/14 07:26:01;;;;;;;2.58;2.00;;;;;;;;;;5072296;28;20386;-78
2022/12/14 07:28:27;;;;;;;4.63;2.20;;;;;;;;;;5054736;28;20025;-78
2022/12/14 07:30:57;;;;;;;6.32;2.15;;;;;;;;;;5062821;28;20021;-78
2022/12/14 07:33:24;;;;;;;3.33;1.73;;;;;;;;;;5063767;28;20053;-77
2022/12/14 07:35:50;;;;;;;3.85;2.22;;;;;;;;;;5067038;28;20029;-79
2022/12/14 07:38:17;;;;;;;4.80;1.90;;;;;;;;;;5058681;28;20017;-79
2022/12/14 07:40:43;;;;;;;2.28;1.83;;;;;;;;;;5061736;28;20021;-78
2022/12/14 07:43:09;;;;;;;3.13;2.65;;;;;;;;;;5073100;28;20037;-80
2022/12/14 07:45:36;;;;;;;3.25;1.85;;;;;;;;;;5006903;28;1574275;-79
2022/12/14 07:48:02;;;;;;;3.00;2.20;;;;;;;;;;5056068;28;20028;-79
2022/12/14 07:50:28;;;;;;;7.40;3.00;;;;;;;;;;5064060;28;20036;-78
2022/12/14 07:52:54;;;;;;;3.65;1.92;;;;;;;;;;5055963;28;20052;-79
2022/12/14 07:55:20;;;;;;;4.07;2.08;;;;;;;;;;5068126;28;20128;-79
2022/12/14 07:57:46;;;;;;;4.15;2.30;;;;;;;;;;5063777;28;20940;-79
2022/12/14 08:00:13;;;;;;;3.88;1.70;;;;;;;;;;5072143;28;20934;-78
2022/12/14 08:02:39;;;;;;;4.35;2.00;;;;;;;;;;5086985;28;20024;-80
2022/12/14 08:05:05;;;;;;;4.03;1.95;;;;;;;;;;5067664;28;20038;-80
2022/12/14 08:07:31;;;;;;;4.47;2.38;;;;;;;;;;5076714;28;20032;-79
2022/12/14 08:09:57;;;;;;;2.33;1.73;;;;;;;;;;5067539;28;20054;-80
2022/12/14 08:12:23;;;;;;;3.55;2.00;;;;;;;;;;5085223;28;20029;-77
2022/12/14 08:14:50;;;;;;;2.00;1.70;;;;;;;;;;5072178;28;20104;-78
2022/12/14 08:17:16;;;;;;;3.92;1.80;;;;;;;;;;5067896;28;20025;-78
2022/12/14 08:19:43;;;;;;;4.60;2.35;;;;;;;;;;5066156;28;20063;-79
2022/12/14 08:22:10;;;;;;;2.83;1.88;;;;;;;;;;5065900;28;20025;-78
2022/12/14 08:24:36;;;;;;;3.72;1.80;;;;;;;;;;5068254;28;20044;-79
2022/12/14 08:27:02;;;;;;;3.97;2.03;;;;;;;;;;5080695;28;20025;-79
2022/12/14 08:29:28;;;;;;;2.45;1.80;;;;;;;;;;5066429;28;20123;-80
2022/12/14 08:31:55;;;;;;;3.47;2.00;;;;;;;;;;5070450;28;20049;-80
2022/12/14 08:34:21;;;;;;;3.13;1.88;;;;;;;;;;5073250;28;20021;-78
2022/12/14 08:36:47;;;;;;;4.07;1.90;;;;;;;;;;5063551;28;20038;-79
2022/12/14 08:39:14;;;;;;;2.38;2.00;;;;;;;;;;5062357;28;20045;-77
2022/12/14 08:41:40;;;;;;;2.03;1.83;;;;;;;;;;5075197;28;20025;-77
2022/12/14 08:51:54;;;;;;;3.63;2.08;;;;;;;;;;5361888;22;20067;-78
2022/12/14 08:54:22;;;;;;;5.57;3.13;;;;;;;;;;5048693;28;20092;-76
2022/12/14 08:56:54;;;;;;;4.07;2.53;;;;;;;;;;5050870;28;20025;-76
2022/12/14 08:59:23;;;;;;;5.78;3.22;;;;;;;;;;5054190;28;20021;-78
2022/12/14 09:01:56;;;;;;;5.97;3.10;;;;;;;;;;5048688;28;20029;-78
2022/12/14 09:04:26;;;;;;;5.93;3.35;;;;;;;;;;5029798;28;20042;-78
2022/12/14 09:07:00;;;;;;;6.97;2.58;;;;;;;;;;5030459;28;20097;-78
2022/12/14 09:09:41;;;;;;;4.05;2.42;;;;;;;;;;5048801;28;20025;-79
2022/12/14 09:12:09;;;;;;;6.22;2.58;;;;;;;;;;5034867;28;20029;-80
2022/12/14 09:14:45;;;;;;;3.05;2.22;;;;;;;;;;5046787;28;20029;-77
2022/12/14 09:17:19;;;;;;;3.60;2.20;;;;;;;;;;5041589;28;20014;-78
2022/12/14 09:19:47;;;;;;;6.72;2.50;;;;;;;;;;5035891;28;20021;-79
2022/12/14 09:22:37;;;;;;;2.20;1.98;;;;;;;;;;5048559;28;20380;-80
2022/12/14 09:25:09;;;;;;;3.85;2.70;;;;;;;;;;5043947;28;20052;-77
2022/12/14 09:27:37;;;;;;;2.95;2.38;;;;;;;;;;5047859;28;20026;-80
2022/12/14 09:30:10;;;;;;;6.03;2.45;;;;;;;;;;5048535;28;20025;-78
2022/12/14 09:32:39;;;;;;;5.13;2.58;;;;;;;;;;5031334;28;20107;-79
2022/12/14 09:35:13;;;;;;;3.05;2.17;;;;;;;;;;5055623;28;20048;-78
2022/12/14 09:37:41;;;;;;;2.35;2.10;;;;;;;;;;5046894;28;20022;-79
2022/12/14 09:40:10;;;;;;;2.30;1.90;;;;;;;;;;5048043;28;20021;-79
2022/12/14 09:42:45;;;;;;;4.03;2.15;;;;;;;;;;5029768;28;20029;-79
2022/12/14 09:45:21;;;;;;;5.55;2.63;;;;;;;;;;5049937;28;20031;-80
2022/12/14 09:48:00;;;;;;;4.05;2.17;;;;;;;;;;5039730;28;20038;-77
2022/12/14 09:50:27;;;;;;;2.90;2.30;;;;;;;;;;5051696;28;20025;-77
2022/12/14 09:52:55;;;;;;;5.47;2.53;;;;;;;;;;5067148;28;20084;-76
2022/12/14 09:55:25;;;;;;;4.53;2.70;;;;;;;;;;5026474;28;20010;-77
2022/12/14 09:57:58;;;;;;;6.47;3.58;;;;;;;;;;5044943;28;20387;-78
2022/12/14 10:00:37;;;;;;;3.60;2.88;;;;;;;;;;5041641;28;20032;-76
2022/12/14 10:03:25;;;;;;;3.92;2.40;;;;;;;;;;5046900;28;20018;-75
2022/12/14 10:05:58;;;;;;;3.17;2.50;;;;;;;;;;5045790;28;20025;-77
2022/12/14 10:08:29;;;;;;;4.45;2.33;;;;;;;;;;5037264;28;20026;-76
2022/12/14 10:11:03;;;;;;;4.70;2.25;;;;;;;;;;5047295;28;20492;-76
2022/12/14 10:13:29;;;;;;;3.08;2.22;;;;;;;;;;5046619;28;20040;-76
2022/12/14 10:16:17;;;;;;;3.60;2.40;;;;;;;;;;5047827;28;20029;-75
2022/12/14 10:19:02;;;;;;;2.40;2.20;;;;;;;;;;5046885;28;20021;-76
2022/12/14 10:21:38;;;;;;;3.50;2.10;;;;;;;;;;5047954;28;20022;-75
2022/12/14 10:24:12;;;;;;;6.78;2.38;;;;;;;;;;5061377;28;20040;-76
2022/12/14 10:26:42;;;;;;;3.47;2.58;;;;;;;;;;5066822;28;20025;-78
2022/12/14 10:29:29;;;;;;;3.38;2.25;;;;;;;;;;5047441;28;20028;-76
2022/12/14 10:32:27;;;;;;;4.93;2.60;;;;;;;;;;5038869;28;20040;-77
2022/12/14 10:34:59;;;;;;;3.58;2.30;;;;;;;;;;5042554;28;20037;-76
2022/12/14 10:37:46;;;;;;;3.75;2.60;;;;;;;;;;5053003;28;20510;-76
2022/12/14 10:40:15;;;;;;;3.38;2.20;;;;;;;;;;5034063;28;20025;-76
2022/12/14 10:42:48;;;;;;;4.25;2.20;;;;;;;;;;5034666;28;20014;-76
2022/12/14 10:45:29;;;;;;;3.85;2.20;;;;;;;;;;5033027;28;20120;-75
2022/12/14 10:48:14;;;;;;;5.07;2.80;;;;;;;;;;5051004;28;20052;-75
2022/12/14 10:50:49;;;;;;;4.72;3.25;;;;;;;;;;5051508;28;20085;-75
2022/12/14 10:53:22;;;;;;;5.63;2.70;;;;;;;;;;5052772;28;20052;-76
2022/12/14 10:55:59;;;;;;;6.40;2.75;;;;;;;;;;5051182;28;20079;-77
2022/12/14 10:58:25;;;;;;;5.40;2.75;;;;;;;;;;5052396;28;20105;-76
2022/12/14 11:00:54;;;;;;;5.50;2.60;;;;;;;;;;5052132;28;20049;-77
2022/12/14 11:03:27;;;;;;;4.40;3.17;;;;;;;;;;5051169;28;20021;-75
2022/12/14 11:06:06;;;;;;;4.90;3.20;;;;;;;;;;5051266;28;20155;-75
2022/12/14 11:08:46;;;;;;;5.28;3.50;;;;;;;;;;5051218;28;20027;-77
2022/12/14 11:11:21;;;;;;;3.75;2.65;;;;;;;;;;5047089;28;20104;-76
2022/12/14 11:14:16;;;;;;;4.22;2.63;;;;;;;;;;5034983;28;20069;-76
2022/12/14 11:16:49;;;;;;;9.45;2.85;;;;;;;;;;5019787;28;20087;-76
2022/12/14 11:19:20;;;;;;;6.10;2.95;;;;;;;;;;5050401;28;20022;-76
2022/12/14 11:21:46;;;;;;;3.72;3.15;;;;;;;;;;5049204;28;20032;-76
2022/12/14 11:24:23;;;;;;;7.82;3.25;;;;;;;;;;5048811;28;20034;-76
2022/12/14 11:26:54;;;;;;;5.40;2.95;;;;;;;;;;5049038;28;20089;-76
2022/12/14 11:29:31;;;;;;;6.85;3.70;;;;;;;;;;5049001;28;20053;-76
2022/12/14 11:32:00;;;;;;;8.82;3.53;;;;;;;;;;5049720;28;20025;-77
2022/12/14 11:40:51;;;;;;;5.65;3.05;;;;;;;;;;5015184;28;20064;-76
2022/12/14 11:43:28;;;;;;;7.05;3.03;;;;;;;;;;5031106;28;20025;-76
2022/12/14 11:46:01;;;;;;;7.70;4.03;;;;;;;;;;5030841;28;20025;-76
2022/12/14 11:48:28;;;;;;;7.78;4.50;;;;;;;;;;5030823;28;20036;-76
2022/12/14 11:51:11;;;;;;;6.45;4.30;;;;;;;;;;5048668;28;20042;-76
2022/12/14 11:53:37;;;;;;;5.22;3.15;;;;;;;;;;5049675;28;20021;-77
2022/12/14 11:56:06;;;;;;;4.40;2.88;;;;;;;;;;5068081;28;20048;-79
2022/12/14 11:58:33;;;;;;;5.40;2.97;;;;;;;;;;5065876;28;20040;-77
2022/12/14 12:01:04;;;;;;;7.88;3.00;;;;;;;;;;5048098;28;20029;-78
2022/12/14 12:03:57;;;;;;;4.35;2.75;;;;;;;;;;5032396;28;20020;-77
2022/12/14 12:06:28;;;;;;;3.35;2.70;;;;;;;;;;5050368;28;20108;-77
2022/12/14 12:08:58;;;;;;;7.00;3.58;;;;;;;;;;5064612;28;20085;-77
2022/12/14 12:11:27;;;;;;;5.78;3.47;;;;;;;;;;5035301;28;20033;-78
2022/12/14 12:13:58;;;;;;;6.43;2.63;;;;;;;;;;5043335;28;20056;-79
2022/12/14 12:16:26;;;;;;;6.88;3.47;;;;;;;;;;5031374;28;20036;-79
2022/12/14 12:19:08;;;;;;;6.80;3.78;;;;;;;;;;5043033;28;20041;-82
2022/12/14 12:21:39;;;;;;;6.20;3.65;;;;;;;;;;5030665;28;20018;-81
2022/12/14 12:24:11;;;;;;;5.43;3.70;;;;;;;;;;5060157;28;20051;-79
2022/12/14 12:26:57;;;;;;;3.80;3.17;;;;;;;;;;5062582;28;20029;-80
2022/12/14 12:29:41;;;;;;;7.15;2.95;;;;;;;;;;5036585;28;20041;-78
2022/12/14 12:32:11;;;;;;;3.47;2.22;;;;;;;;;;5049554;28;20041;-79
2022/12/14 12:34:43;;;;;;;4.85;2.63;;;;;;;;;;5052110;28;20112;-78
2022/12/14 12:37:13;;;;;;;6.07;3.08;;;;;;;;;;5048406;28;20021;-80
2022/12/14 12:39:51;;;;;;;3.15;2.10;;;;;;;;;;5044837;28;20018;-82
2022/12/14 12:42:22;;;;;;;7.35;4.28;;;;;;;;;;5049028;28;20060;-78
2022/12/14 12:44:58;;;;;;;4.72;2.95;;;;;;;;;;5049165;28;20489;-79
2022/12/14 12:47:36;;;;;;;7.60;3.42;;;;;;;;;;5024068;28;20038;-77
2022/12/14 12:50:35;;;;;;;9.90;3.63;;;;;;;;;;5048677;28;20029;-77
2022/12/14 12:53:36;;;;;;;4.72;2.53;;;;;;;;;;5004105;28;20484;-77
2022/12/14 12:56:08;;;;;;;3.90;2.60;;;;;;;;;;5007386;28;20487;-78
2022/12/14 12:58:39;;;;;;;6.00;2.60;;;;;;;;;;5030496;28;20025;-78
2022/12/14 13:01:28;;;;;;;3.45;2.53;;;;;;;;;;5040500;28;20050;-79
2022/12/14 13:04:15;;;;;;;7.75;3.10;;;;;;;;;;5024692;28;20387;-79
2022/12/14 13:06:50;;;;;;;5.65;2.78;;;;;;;;;;5039840;28;20022;-82
2022/12/14 13:09:19;;;;;;;6.32;3.42;;;;;;;;;;5047836;28;20022;-80
2022/12/14 13:11:46;;;;;;;7.18;3.08;;;;;;;;;;5061792;28;20048;-78
2022/12/14 13:14:25;;;;;;;5.78;2.90;;;;;;;;;;5045081;28;20029;-79
2022/12/14 13:16:52;;;;;;;5.55;2.60;;;;;;;;;;5034960;28;20071;-81
2022/12/14 13:19:25;;;;;;;4.97;2.75;;;;;;;;;;5050150;28;20021;-79
2022/12/14 13:21:52;;;;;;;6.40;2.70;;;;;;;;;;5024461;28;20029;-81
2022/12/14 13:24:22;;;;;;;3.65;2.42;;;;;;;;;;5042296;28;20104;-78
2022/12/14 13:27:07;;;;;;;4.18;2.40;;;;;;;;;;5042019;28;20030;-82
2022/12/14 13:29:54;;;;;;;5.32;3.20;;;;;;;;;;5039127;28;20074;-77
2022/12/14 13:32:29;;;;;;;7.25;3.15;;;;;;;;;;5037754;28;20032;-80
2022/12/14 13:35:01;;;;;;;6.72;3.08;;;;;;;;;;5036922;28;20032;-79
2022/12/14 13:37:31;;;;;;;9.77;3.60;;;;;;;;;;5033164;28;20038;-81
2022/12/14 13:39:57;;;;;;;7.25;3.38;;;;;;;;;;5041126;28;20025;-76
2022/12/14 13:42:43;;;;;;;5.95;3.80;;;;;;;;;;5041412;28;20021;-79
2022/12/14 13:45:19;;;;;;;4.82;2.72;;;;;;;;;;5041055;28;20036;-78
2022/12/14 13:47:52;;;;;;;5.28;3.08;;;;;;;;;;5032560;28;20030;-77
2022/12/14 13:50:25;;;;;;;5.82;2.92;;;;;;;;;;5046541;28;20104;-79
2022/12/14 13:52:54;;;;;;;4.30;2.40;;;;;;;;;;5045828;28;20120;-79
2022/12/14 13:55:30;;;;;;;6.93;3.35;;;;;;;;;;5038144;28;20048;-78
2022/12/14 13:58:12;;;;;;;3.75;2.40;;;;;;;;;;5037740;28;20026;-79
2022/12/14 14:00:45;;;;;;;7.72;3.75;;;;;;;;;;5031445;28;20022;-80
2022/12/14 14:03:30;;;;;;;7.80;3.30;;;;;;;;;;5039486;28;20032;-80
2022/12/14 14:06:16;;;;;;;5.57;2.92;;;;;;;;;;5048651;28;20444;-79
2022/12/14 14:08:42;;;;;;;;;;;;;;;;;;5050608;28;20491;-80
2022/12/14 14:11:08;;;;;;;;;;;;;;;;;;5030388;28;19951;-80
2022/12/14 14:13:56;;;;;;;6.55;2.40;;;;;;;;;;5050633;28;19909;-79
2022/12/14 14:16:38;;;;;;;7.38;4.03;;;;;;;;;;5053159;28;20029;-81
2022/12/14 14:19:21;;;;;;;9.57;4.28;;;;;;;;;;5050320;28;20019;-87
2022/12/14 14:22:09;;;;;;;7.57;3.25;;;;;;;;;;5045003;28;20468;-79
2022/12/14 14:24:58;;;;;;;11.43;4.22;;;;;;;;;;5042329;28;20052;-79
2022/12/14 14:27:26;;;;;;;6.70;3.58;;;;;;;;;;5024475;28;20038;-80
2022/12/14 14:29:52;;;;;;;9.88;4.10;;;;;;;;;;5041926;28;20025;-77
2022/12/14 14:32:36;;;;;;;6.38;3.83;;;;;;;;;;5032688;28;20488;-79
2022/12/14 14:35:05;;;;;;;7.30;3.10;;;;;;;;;;5041076;28;20120;-76
2022/12/14 14:37:32;;;;;;;7.13;3.20;;;;;;;;;;5053516;28;20022;-77
2022/12/14 14:40:05;;;;;;;5.60;2.70;;;;;;;;;;5050892;28;20006;-78
2022/12/14 14:42:42;;;;;;;6.85;2.95;;;;;;;;;;5051555;28;20045;-78
2022/12/14 14:45:20;;;;;;;7.68;2.80;;;;;;;;;;5043265;28;20030;-78
2022/12/14 14:47:53;;;;;;;3.50;2.60;;;;;;;;;;5034016;28;20052;-78
2022/12/14 14:50:29;;;;;;;4.57;2.42;;;;;;;;;;5031540;28;20064;-78
2022/12/14 14:52:58;;;;;;;4.50;2.70;;;;;;;;;;5035990;28;20060;-77
2022/12/14 14:55:30;;;;;;;5.63;2.90;;;;;;;;;;5044457;28;20030;-80
2022/12/14 15:01:03;;;;;;;4.93;2.85;;;;;;;;;;5026441;28;20032;-76
2022/12/14 15:03:41;;;;;;;4.38;2.92;;;;;;;;;;5026302;28;20034;-76
2022/12/14 15:06:15;;;;;;;7.88;3.53;;;;;;;;;;5026489;28;20026;-79
2022/12/14 15:08:43;;;;;;;5.13;3.58;;;;;;;;;;5032511;28;20037;-79
2022/12/14 15:11:20;;;;;;;6.43;3.28;;;;;;;;;;5034351;28;20067;-78
2022/12/14 15:13:48;;;;;;;6.22;4.25;;;;;;;;;;5034673;28;20026;-78
2022/12/14 15:16:28;;;;;;;4.68;2.67;;;;;;;;;;5035753;28;20045;-78
2022/12/14 15:19:14;;;;;;;7.63;3.38;;;;;;;;;;5036323;28;20099;-78
2022/12/14 15:21:43;;;;;;;8.30;5.53;;;;;;;;;;5012528;28;20033;-79
2022/12/14 15:24:17;;;;;;;8.73;4.97;;;;;;;;;;5040164;28;20064;-77
2022/12/14 15:26:46;;;;;;;11.63;7.30;;;;;;;;;;5037784;28;20093;-77
2022/12/14 15:29:21;;;;;;;12.13;5.60;;;;;;;;;;5024703;28;20044;-78
2022/12/14 15:31:53;;;;;;;;;;;;;;;;;;5030544;28;20032;-77
2022/12/14 15:34:20;;;;;;;14.55;6.43;;;;;;;;;;5029552;28;19920;-78
2022/12/14 15:36:47;;;;;;;9.07;5.90;;;;;;;;;;5039473;28;20033;-78
2022/12/14 15:39:32;;;;;;;10.32;5.40;;;;;;;;;;5038500;28;20404;-77